Latest Weather Observations for Bellambi

IDN60801

Issued at 11:04 am EDT Friday 30 January 2015 (issued every 30 minutes, with the page automatically refreshed every 10 minutes)

About weather observations | Map of weather stations | Latest weather observations for NSW | Other Formats
Station Details ID: 068228 Name: BELLAMBI AWS Lat: -34.37 Lon: 150.93 Height: 10.0 m
Data from the previous 72 hours. | See also: Recent months at Bellambi
Date/Time
EDT
Temp
°C
App
Temp
°C
Dew
Point
Rel
Hum
%
Delta-T
°C
Wind Press
QNH
hPa
Press
MSL
hPa
Rain
since 9 am
mm
Dir
 
Spd
km/h
Gust
km/h
Spd
kts
Gust
kts
30/11:00am 21.0 15.5 9.3 47 6.2 SSW 28 43 15 23 - - 0.0
30/10:30am 20.9 14.8 9.8 49 6.0 SSW 32 43 17 23 - - 0.0
30/10:07am 20.6 14.8 9.5 49 5.9 SW 30 48 16 26 - - 0.0
30/10:00am 20.2 13.7 8.2 46 6.2 SSW 32 43 17 23 - - 0.0
30/09:43am 19.9 14.0 8.9 49 5.8 SSW 30 48 16 26 - - 0.0
30/09:30am 19.7 13.4 7.4 45 6.3 SW 30 43 16 23 - - 0.0
30/09:00am 19.3 13.4 7.4 46 6.1 SW 28 43 15 23 - - 0.0
30/08:30am 18.7 13.6 7.5 48 5.7 SW 24 35 13 19 - - 0.0
30/08:00am 17.9 13.3 6.7 48 5.6 SW 20 32 11 17 - - 0.0
30/07:30am 17.3 12.9 7.6 53 4.9 SW 20 30 11 16 - - 0.0
30/07:00am 16.2 12.6 6.9 54 4.6 SW 15 20 8 11 - - 0.0
30/06:30am 15.7 12.1 6.7 55 4.4 WSW 15 19 8 10 - - 0.0
30/06:00am 15.7 12.2 7.2 57 4.2 SW 15 20 8 11 - - 0.0
30/05:30am 15.7 11.7 6.7 55 4.4 WSW 17 20 9 11 - - 0.0
30/05:00am 15.6 12.0 6.6 55 4.4 WSW 15 20 8 11 - - 0.0
30/04:30am 16.0 11.7 7.2 56 4.4 SW 19 24 10 13 - - 0.0
30/04:00am 16.0 12.4 6.7 54 4.6 SW 15 22 8 12 - - 0.0
30/03:30am 16.3 12.2 6.4 52 4.8 SW 17 22 9 12 - - 0.0
30/03:00am 16.3 12.6 6.4 52 4.8 SW 15 20 8 11 - - 0.0
30/02:30am 16.5 12.6 7.2 54 4.6 SW 17 28 9 15 - - 0.0
30/02:00am 16.2 13.0 6.9 54 4.6 WSW 13 20 7 11 - - 0.0
30/01:30am 16.5 12.6 7.2 54 4.6 SW 17 24 9 13 - - 0.0
30/01:00am 16.4 12.2 7.6 56 4.4 SW 19 26 10 14 - - 0.0
30/12:30am 16.8 11.8 8.0 56 4.5 SW 24 39 13 21 - - 0.0
30/12:00am 16.7 13.1 8.4 58 4.2 SW 17 24 9 13 - - 0.0
 
Date/Time
EDT
Temp
°C
App
Temp
°C
Dew
Point
Rel
Hum
%
Delta-T
°C
Wind Press
QNH
hPa
Press
MSL
hPa
Rain
since 9 am
mm
Dir
 
Spd
km/h
Gust
km/h
Spd
kts
Gust
kts
29/11:30pm 16.7 13.1 8.4 58 4.2 SW 17 20 9 11 - - 0.0
29/11:00pm 17.4 12.1 9.8 61 4.0 SW 28 39 15 21 - - 0.0
29/10:30pm 17.4 12.8 9.8 61 4.0 SW 24 39 13 21 - - 0.0
29/10:00pm 17.5 13.3 9.9 61 4.0 SW 22 32 12 17 - - 0.0
29/09:30pm 17.9 13.5 10.5 62 4.0 SW 24 37 13 20 - - 0.0
29/09:00pm 18.2 13.2 11.0 63 3.9 SW 28 39 15 21 - - 0.0
29/08:30pm 18.9 12.8 11.9 64 3.9 SSW 35 46 19 25 - - 0.0
29/08:00pm 18.9 12.3 11.5 62 4.1 SSW 37 48 20 26 - - 0.0
29/07:30pm 19.2 12.0 12.0 63 4.0 SSW 41 52 22 28 - - 0.0
29/07:00pm 19.5 12.3 13.0 66 3.7 SSW 43 54 23 29 - - 0.0
29/06:30pm 20.0 11.9 12.0 60 4.5 S 46 56 25 30 - - 0.0
29/06:00pm 19.9 11.3 11.7 59 4.5 S 48 56 26 30 - - 0.0
29/05:30pm 20.2 12.6 11.9 59 4.6 S 43 50 23 27 - - 0.0
29/05:00pm 20.2 12.9 11.7 58 4.7 S 41 48 22 26 - - 0.0
29/04:30pm 20.5 12.5 12.5 60 4.5 S 46 56 25 30 - - 0.0
29/04:00pm 20.7 14.2 12.9 61 4.4 S 39 50 21 27 - - 0.0
29/03:49pm 20.5 14.4 13.0 62 4.3 S 37 48 20 26 - - 0.0
29/03:30pm 21.9 16.1 10.7 49 6.2 SSW 32 44 17 24 - - 0.0
29/03:00pm 21.2 15.4 12.6 58 4.9 SSW 35 46 19 25 - - 0.0
29/02:30pm 21.2 14.9 11.0 52 5.6 SSW 35 46 19 25 - - 0.0
29/02:00pm 21.7 15.2 10.5 49 6.1 SSW 35 54 19 29 - - 0.0
29/01:50pm 21.3 14.6 11.1 52 5.6 SSW 37 56 20 30 - - 0.0
29/01:30pm 20.6 12.9 12.1 58 4.8 S 44 59 24 32 - - 0.0
29/01:21pm 20.4 12.6 9.6 50 5.8 SSW 41 59 22 32 - - 0.0
29/01:00pm 20.7 13.2 10.8 53 5.4 S 41 48 22 26 - - 0.0
29/12:30pm 20.8 13.3 9.4 48 6.1 SSW 39 50 21 27 - - 0.0
29/12:16pm 21.1 15.0 10.6 51 5.7 SSW 33 52 18 28 - - 0.0
29/12:00pm 20.3 13.6 9.5 50 5.8 SSW 35 50 19 27 - - 0.0
29/11:30am 20.3 14.5 11.5 57 4.9 SW 33 48 18 26 - - 0.0
29/11:00am 19.5 11.6 10.8 57 4.7 SSW 43 48 23 26 - - 0.0
29/10:30am 19.5 11.5 10.5 56 4.9 SSW 43 54 23 29 - - 0.0
29/10:00am 18.9 11.7 10.5 58 4.5 SSW 39 50 21 27 - - 0.0
29/09:30am 18.7 12.8 11.0 61 4.2 SSW 33 46 18 25 - - 0.0
29/09:00am 18.1 11.9 10.0 59 4.3 SSW 33 46 18 25 - - 0.4
29/08:38am 17.5 11.4 9.7 60 4.1 SW 32 50 17 27 - - 0.4
29/08:30am 17.5 11.4 9.7 60 4.1 SW 32 43 17 23 - - 0.4
29/08:00am 16.8 10.9 9.2 61 3.9 SW 30 43 16 23 - - 0.4
29/07:30am 16.2 10.3 9.2 63 3.6 SW 30 43 16 23 - - 0.4
29/07:00am 15.3 10.9 9.0 66 3.2 SW 22 35 12 19 - - 0.4
29/06:30am 15.1 10.4 9.2 68 3.0 SW 24 33 13 18 - - 0.4
29/06:00am 15.6 10.5 10.6 72 2.6 SW 28 41 15 22 - - 0.4
29/05:30am 15.6 10.1 10.6 72 2.6 SW 30 41 16 22 - - 0.4
29/05:00am 15.4 9.9 10.6 73 2.5 SW 30 39 16 21 - - 0.4
29/04:30am 15.6 10.9 10.8 73 2.5 SW 26 35 14 19 - - 0.4
29/04:00am 15.6 11.8 11.0 74 2.5 SW 22 32 12 17 - - 0.4
29/03:30am 16.0 11.6 11.6 75 2.4 SW 26 35 14 19 - - 0.4
29/03:00am 16.1 11.8 12.1 77 2.2 SW 26 37 14 20 - - 0.4
29/02:30am 16.4 11.5 12.6 78 2.1 SW 30 39 16 21 - - 0.4
29/02:00am 16.0 12.6 12.4 79 2.0 SW 22 32 12 17 - - 0.4
29/01:30am 16.0 11.4 12.4 79 2.0 SW 28 39 15 21 - - 0.4
29/01:12am 16.6 10.1 12.9 79 2.1 SW 39 57 21 31 - - 0.4
29/01:00am 17.0 10.2 13.1 78 2.2 SSW 41 54 22 29 - - 0.4
29/12:30am 16.3 12.5 12.3 77 2.2 SW 24 33 13 18 - - 0.4
29/12:00am 16.6 13.6 12.4 76 2.3 SW 20 28 11 15 - - 0.4
 
Date/Time
EDT
Temp
°C
App
Temp
°C
Dew
Point
Rel
Hum
%
Delta-T
°C
Wind Press
QNH
hPa
Press
MSL
hPa
Rain
since 9 am
mm
Dir
 
Spd
km/h
Gust
km/h
Spd
kts
Gust
kts
28/11:30pm 16.9 13.6 12.8 77 2.3 SW 22 33 12 18 - - 0.4
28/11:00pm 17.0 13.7 12.7 76 2.4 SW 22 37 12 20 - - 0.4
28/10:30pm 17.3 14.0 12.8 75 2.5 SW 22 33 12 18 - - 0.4
28/10:00pm 17.2 14.2 12.7 75 2.5 SW 20 30 11 16 - - 0.4
28/09:30pm 17.1 14.1 12.6 75 2.5 SW 20 26 11 14 - - 0.4
28/09:00pm 17.2 13.5 12.7 75 2.5 SW 24 32 13 17 - - 0.4
28/08:30pm 17.2 13.4 12.3 73 2.7 SW 24 33 13 18 - - 0.4
28/08:00pm 17.4 13.6 12.3 72 2.8 SW 24 30 13 16 - - 0.4
28/07:37pm 17.8 12.6 12.9 73 2.7 SW 32 50 17 27 - - 0.4
28/07:30pm 18.6 13.2 13.9 74 2.7 SW 35 50 19 27 - - 0.4
28/07:00pm 18.6 14.8 13.5 72 2.9 SW 26 35 14 19 - - 0.4
28/06:30pm 18.7 15.1 13.1 70 3.2 SW 24 32 13 17 - - 0.2
28/06:00pm 18.4 14.9 13.5 73 2.8 SW 24 30 13 16 - - 0.2
28/05:30pm 18.9 13.7 14.6 76 2.5 S 35 43 19 23 - - 0.2
28/05:00pm 19.4 14.0 13.8 70 3.2 S 35 41 19 22 - - 0.2
28/04:30pm 20.3 14.6 15.1 72 3.1 S 39 46 21 25 - - 0.2
28/04:00pm 20.3 13.8 15.1 72 3.1 SSW 43 54 23 29 - - 0.2
28/03:41pm 20.8 15.6 15.6 72 3.1 SSW 37 56 20 30 - - 0.2
28/03:30pm 20.7 17.1 16.3 76 2.6 SSW 30 41 16 22 - - 0.2
28/03:00pm 20.2 18.0 16.0 77 2.5 SSW 22 28 12 15 - - 0.2
28/02:30pm 19.1 16.8 15.6 80 2.1 SSW 22 33 12 18 - - 0.2
28/02:00pm 18.4 14.5 15.6 84 1.6 SSW 30 43 16 23 - - 0.2
28/01:30pm 18.4 15.9 16.2 87 1.3 SSW 24 37 13 20 - - 0.2
28/01:00pm 18.6 16.2 16.4 87 1.3 SSW 24 32 13 17 - - 0.2
28/12:30pm 18.3 15.8 16.1 87 1.3 SSW 24 30 13 16 - - 0.2
28/12:00pm 18.4 15.5 16.2 87 1.3 SSW 26 33 14 18 - - 0.0
28/11:30am 18.1 14.6 16.4 90 1.0 SSW 30 41 16 22 - - 0.0
28/11:06am 18.0 16.4 16.5 91 0.9 SSW 20 26 11 14 - - 0.0
28/11:00am 18.0 15.6 16.5 91 0.9 SSW 24 33 13 18 - - 0.0
28/10:53am 17.7 14.1 16.2 91 0.9 S 30 37 16 20 - - 0.0
28/10:36am 17.6 15.2 16.5 93 0.7 SW 24 46 13 25 - - 0.0
28/10:30am 17.3 15.6 16.3 94 0.6 SW 20 28 11 15 - - 0.0
28/10:00am 17.3 16.6 16.3 94 0.6 SW 15 24 8 13 - - 0.0
28/09:30am 17.5 15.1 16.5 94 0.6 SSW 24 32 13 17 - - 0.0
28/09:16am 17.2 14.8 16.4 95 0.5 SSW 24 32 13 17 - - 0.0
28/09:00am 17.4 14.3 16.6 95 0.5 SSW 28 41 15 22 - - 41.2
28/08:30am 17.0 13.4 16.2 95 0.5 SSW 30 41 16 22 - - 40.4
28/08:00am 16.6 15.6 15.5 93 0.6 SW 15 24 8 13 - - 30.8
28/07:50am 16.9 15.0 15.8 93 0.6 SW 20 28 11 15 - - 30.4
28/07:30am 17.2 11.8 16.1 93 0.7 S 39 44 21 24 - - 30.2
28/07:00am 17.4 12.9 16.3 93 0.7 SSW 35 44 19 24 - - 29.4
28/06:51am 17.3 12.3 16.0 92 0.8 SSW 37 48 20 26 - - 29.4
28/06:30am 17.9 14.2 16.1 89 1.1 SSW 30 37 16 20 - - 28.8
28/06:00am 17.4 14.0 15.7 90 1.0 SSW 28 39 15 21 - - 28.8
28/05:46am 17.1 15.1 15.6 91 0.9 SW 20 26 11 14 - - 28.8
28/05:30am 17.0 14.6 15.5 91 0.9 SW 22 32 12 17 - - 28.8
28/05:00am 17.1 14.0 15.6 91 0.9 SW 26 39 14 21 - - 28.8
28/04:49am 17.2 14.1 15.7 91 0.9 SW 26 35 14 19 - - 28.8
28/04:30am 17.3 15.0 15.8 91 0.9 SW 22 32 12 17 - - 28.8
28/04:00am 17.0 15.7 15.9 93 0.6 SW 17 22 9 12 - - 28.8
28/03:30am 17.1 17.4 16.1 94 0.6 WSW 9 13 5 7 - - 28.6
28/03:22am 17.2 18.1 16.2 94 0.6 W 6 13 3 7 - - 28.6
28/03:00am 17.4 18.8 16.4 94 0.6 NNW 4 9 2 5 - - 28.6
28/02:30am 17.2 17.6 16.2 94 0.6 WSW 9 20 5 11 - - 28.0
28/02:19am 17.2 16.0 16.2 94 0.6 SW 17 24 9 13 - - 26.8
28/02:00am 17.2 16.4 16.2 94 0.6 SW 15 22 8 12 - - 26.4
28/01:30am 17.3 16.9 16.2 93 0.7 WSW 13 17 7 9 - - 25.6
28/01:00am 17.7 15.8 16.6 93 0.7 S 22 30 12 16 - - 24.4
28/12:30am 18.0 15.0 16.9 93 0.7 SE 28 32 15 17 - - 23.6
28/12:00am 18.4 13.7 16.9 91 0.9 SE 37 43 20 23 - - 22.4
 
Date/Time
EDT
Temp
°C
App
Temp
°C
Dew
Point
Rel
Hum
%
Delta-T
°C
Wind Press
QNH
hPa
Press
MSL
hPa
Rain
since 9 am
mm
Dir
 
Spd
km/h
Gust
km/h
Spd
kts
Gust
kts
27/11:30pm 19.1 15.6 17.4 90 1.0 SSE 32 37 17 20 - - 22.4
27/11:15pm 19.0 14.8 17.1 89 1.2 SSE 35 39 19 21 - - 22.4
27/11:00pm 18.8 15.3 17.5 92 0.8 SSE 32 43 17 23 - - 22.4
27/10:37pm 17.5 15.4 16.2 92 0.8 SW 22 32 12 17 - - 20.6
27/10:30pm 17.6 14.8 16.3 92 0.8 SW 26 33 14 18 - - 19.8
27/10:00pm 17.2 15.4 15.9 92 0.8 SW 20 30 11 16 - - 19.6
27/09:30pm 17.6 15.8 16.1 91 0.9 SW 20 26 11 14 - - 19.6
27/09:00pm 18.3 15.6 16.6 90 1.0 SSW 26 32 14 17 - - 19.6
27/08:50pm 18.7 15.7 16.8 89 1.1 SSW 28 35 15 19 - - 19.6
27/08:30pm 18.0 16.5 16.3 90 1.0 SW 19 26 10 14 - - 19.6
27/08:00pm 18.3 16.7 16.6 90 1.0 SW 20 28 11 15 - - 19.6
27/07:53pm 18.3 16.4 16.6 90 1.0 SSW 22 28 12 15 - - 19.6
27/07:32pm 18.4 16.5 16.7 90 1.0 SW 22 32 12 17 - - 19.6
27/07:30pm 18.4 16.5 16.7 90 1.0 SSW 22 32 12 17 - - 19.6
27/07:00pm 18.7 16.5 17.0 90 1.0 SSW 24 35 13 19 - - 19.6
27/06:30pm 18.8 15.9 17.1 90 1.0 SSW 28 32 15 17 - - 19.6
27/06:00pm 18.9 15.3 17.2 90 1.0 SSW 32 35 17 19 - - 19.6
27/05:30pm 19.2 16.1 17.5 90 1.0 SSW 30 35 16 19 - - 19.6
27/05:02pm 19.1 16.6 17.2 89 1.2 S 26 32 14 17 - - 19.4
27/05:00pm 19.0 16.5 17.1 89 1.2 S 26 32 14 17 - - 19.4
27/04:41pm 19.2 17.3 17.7 91 0.9 S 24 30 13 16 - - 19.2
27/04:30pm 19.0 17.8 17.5 91 0.9 S 20 26 11 14 - - 19.2
27/04:00pm 18.5 18.9 17.3 93 0.7 SW 11 13 6 7 - - 19.2
27/03:30pm 18.2 17.4 17.0 93 0.7 S 17 20 9 11 - - 19.0
27/03:00pm 18.5 17.8 17.3 93 0.7 S 17 20 9 11 - - 18.0
27/02:30pm 18.7 18.9 17.7 94 0.6 S 13 19 7 10 - - 17.8
27/02:04pm 18.7 19.7 17.7 94 0.6 S 9 13 5 7 - - 17.4
27/02:00pm 18.6 19.5 17.6 94 0.6 S 9 13 5 7 - - 17.4
27/01:30pm 19.0 20.5 18.0 94 0.6 SE 7 9 4 5 - - 17.4
27/01:00pm 18.6 19.2 17.8 95 0.5 SE 11 13 6 7 - - 16.8
27/12:30pm 18.3 17.6 17.3 94 0.6 SE 17 19 9 10 - - 14.6
27/12:00pm 18.3 17.0 17.3 94 0.6 SE 20 26 11 14 - - 11.0
27/11:30am 18.2 14.6 17.2 94 0.6 SE 32 35 17 19 - - 8.2
27/11:17am 18.3 15.1 17.3 94 0.6 SE 30 35 16 19 - - 7.2
27/11:02am 18.3 15.9 17.3 94 0.6 SSE 26 32 14 17 - - 5.8

Other Formats:

Comma delimited format used in spreadsheet applications
http://www.bom.gov.au/fwo/IDN60801/IDN60801.94749.axf

JavaScript Object Notation format (JSON) in row-major order
http://www.bom.gov.au/fwo/IDN60801/IDN60801.94749.json